Brocton, IL

6:32 AM CDT on July 25, 2014 (GMT -0500)
Edgar County (KPRG) Elev 653 ft | 39.70 °N, 87.67 °W | Change Station

Current weather conditions updated 17 minutes ago

Clear
Clear
52 °F
Feels Like 52 °F
N
0
Wind Variable Wind from North

Today is forecast to be nearly the same temperature as yesterday.

Today
High -- | Low -- °F
--% Chance of Precip.
Yesterday
High -- | Low -- °F
Precip. -- in
5:43 AM 8:10 PM
Waning Crescent, 2% visible
Pressure 30.08 in
Visibility 3.0 miles
Clouds Clear
Dew Point 52 °F
Humidity 99%
Rainfall 0.00 in
Snow Depth Not available.
UV 0 out of 12
Pollen 5.90 out of 12
Air Quality Not available.
Flu Activity Not available.
METAR KPRG 251115Z AUTO 00000KT 3SM BR CLR 11/11 A3008 RMK AO2 T01110109

More Conditions Fewer Conditions

Pressure 30.08 in
Visibility 3.0 miles
Clouds Clear
Dew Point 52 °F
Humidity 99%
Rainfall 0.00 in
Snow Depth Not available.
UV 0 out of 12
Pollen 5.90 out of 12
Air Quality Not available.
Flu Activity Not available.
METAR KPRG 251115Z AUTO 00000KT 3SM BR CLR 11/11 A3008 RMK AO2 T01110109

More Conditions Fewer Conditions

10-Day Weather Forecast

Almanac

Astronomy

Jul. 25, 2014 Rise Set
Actual Time 5:43 AM CDT 8:10 PM CDT
Civil Twilight 5:12 AM CDT 8:41 PM CDT
Nautical Twilight 4:34 AM CDT 9:19 PM CDT
Astronomical Twilight 3:52 AM CDT 10:01 PM CDT
Moon 4:42 AM CDT 7:07 PM CDT
Length of Visible Light 15h 28m
Length of Day
14h 26m
Tomorrow will be 1m 45s shorter.
Waning Crescent, 2% of the Moon is Illuminated
Today
Waning Crescent
Jul 26
New
Aug 3
First Quarter
Aug 10
Full
Aug 17
Last Quarter

Today's Extremes

State Highs State Lows

Community

WunderPhotos

Upload Photos

1,737,289 photos uploaded!

Nearby

Snow Depth

Station Depth Elevation
No new snow has been reported.

Earthquake Activity

City Distance Mag. Time & Date
No recent earthquake activity has been reported nearby.
Minimum magnitude displayed is 2.5.

Coastal Water Temperatures

Place Temperature
No Stations Reporting

Nearby Weather Stations

Station Location Temp. Dew Point Humidity Wind Precip. Elev Updated Type
South Vermillion High School, Clinton, IN 55.2 °F 55 °F 98% SE  at  0.0 mph 0.00 in / hr 518 ft 7:24 AM EDT Normal
Marshall, IL 53.0 °F - 79% North  at  0.0 mph 0.01 in / hr 580 ft 6:32 AM CDT Normal
N0QIO Weather Station, Terre Haute, Terre Haute, IN 57.7 °F 57 °F 96% North  at  0.0 mph 0.00 in / hr 502 ft 7:30 AM EDT Normal
Marshall Golf Course, Marshall, IL 55.1 °F 54 °F 97% NNE  at  0.3 mph 0.00 in / hr 601 ft 6:31 AM CDT Rapid Fire
Sandcut/North Terre Haute, Terre Haute, IN 55.8 °F 50 °F 78% North  at  - 0.00 in / hr 580 ft 7:26 AM EDT Normal
Rockville, IN 54.9 °F 55 °F 99% ENE  at  0.0 mph 0.00 in / hr 702 ft 7:31 AM EDT Rapid Fire

Show More Stations Show Fewer Stations